createdAt,value
2023-04-27T00:00:22.868Z,2.05
2023-04-27T00:01:24.447Z,1.70
2023-04-27T00:02:26.661Z,1.88
2023-04-27T00:03:28.496Z,1.80
2023-04-27T00:04:30.489Z,1.50
2023-04-27T00:05:36.483Z,1.60
2023-04-27T00:06:38.182Z,1.73
2023-04-27T00:07:39.879Z,1.90
2023-04-27T00:08:41.619Z,2.00
2023-04-27T00:09:43.205Z,2.30
2023-04-27T00:10:44.792Z,2.25
2023-04-27T00:11:46.537Z,2.13
2023-04-27T00:12:48.195Z,2.85
2023-04-27T00:13:49.860Z,2.25
2023-04-27T00:14:51.449Z,2.33
2023-04-27T00:15:53.189Z,2.00
2023-04-27T00:16:55.820Z,2.45
2023-04-27T00:17:57.754Z,2.10
2023-04-27T00:18:59.523Z,2.42
2023-04-27T00:20:01.650Z,2.58
2023-04-27T00:21:03.344Z,2.58
2023-04-27T00:22:04.939Z,2.38
2023-04-27T00:23:07.024Z,2.40
2023-04-27T00:24:08.757Z,2.05
2023-04-27T00:25:10.778Z,1.73
2023-04-27T00:26:12.366Z,1.77
2023-04-27T00:27:14.039Z,2.45
2023-04-27T00:28:15.713Z,1.58
2023-04-27T00:29:17.352Z,1.80
2023-04-27T00:30:18.966Z,1.80
2023-04-27T00:31:20.886Z,1.80
2023-04-27T00:32:22.636Z,1.83
2023-04-27T00:33:24.360Z,2.30
2023-04-27T00:34:26.014Z,1.83
2023-04-27T00:35:27.712Z,1.73
2023-04-27T00:36:29.361Z,1.77
2023-04-27T00:37:31.111Z,2.05
2023-04-27T00:38:32.701Z,1.67
2023-04-27T00:39:34.422Z,2.13
2023-04-27T00:40:36.043Z,1.92
2023-04-27T00:41:39.438Z,1.80
2023-04-27T00:42:41.067Z,2.30
2023-04-27T00:43:43.742Z,1.90
2023-04-27T00:44:48.342Z,1.90
2023-04-27T00:45:49.958Z,1.80
2023-04-27T00:46:52.369Z,2.30
2023-04-27T00:47:54.052Z,2.08
2023-04-27T00:48:56.241Z,2.42
2023-04-27T00:49:57.922Z,2.65
2023-04-27T00:50:59.510Z,2.45
2023-04-27T00:52:01.103Z,2.72
2023-04-27T00:53:02.704Z,2.38
2023-04-27T00:54:04.798Z,2.50
2023-04-27T00:55:07.330Z,2.53
2023-04-27T00:56:09.012Z,2.25
2023-04-27T00:57:10.905Z,2.00
2023-04-27T00:58:12.489Z,2.55
2023-04-27T00:59:14.305Z,3.13
2023-04-27T01:00:16.101Z,2.65
2023-04-27T01:01:17.992Z,2.70
2023-04-27T01:02:19.852Z,2.30
2023-04-27T01:03:22.171Z,2.65
2023-04-27T01:04:24.100Z,2.47
2023-04-27T01:05:25.815Z,2.60
2023-04-27T01:06:29.805Z,2.78
2023-04-27T01:07:31.394Z,2.90
2023-04-27T01:08:33.020Z,3.35
2023-04-27T01:09:34.798Z,2.38
2023-04-27T01:10:37.698Z,2.67
2023-04-27T01:11:39.374Z,2.67
2023-04-27T01:12:41.237Z,2.90
2023-04-27T01:13:42.817Z,2.67
2023-04-27T01:14:44.457Z,2.45
2023-04-27T01:15:46.126Z,3.08
2023-04-27T01:16:47.922Z,2.40
2023-04-27T01:17:49.558Z,2.30
2023-04-27T01:18:51.195Z,2.60
2023-04-27T01:19:55.354Z,2.20
2023-04-27T01:20:57.021Z,2.22
2023-04-27T01:21:58.623Z,2.55
2023-04-27T01:23:00.225Z,2.30
2023-04-27T01:24:01.831Z,2.40
2023-04-27T01:25:03.481Z,2.40
2023-04-27T01:26:05.159Z,1.90
2023-04-27T01:27:06.750Z,2.70
2023-04-27T01:28:08.349Z,2.53
2023-04-27T01:29:09.956Z,2.75
2023-04-27T01:30:11.664Z,1.98
2023-04-27T01:31:13.438Z,2.33
2023-04-27T01:32:15.048Z,2.10
2023-04-27T01:33:16.790Z,2.20
2023-04-27T01:34:18.378Z,2.28
2023-04-27T01:35:20.059Z,2.65
2023-04-27T01:36:21.694Z,1.95
2023-04-27T01:37:23.548Z,2.20
2023-04-27T01:38:25.246Z,2.77
2023-04-27T01:39:27.005Z,2.75
2023-04-27T01:40:28.645Z,2.35
2023-04-27T01:41:30.255Z,2.42
2023-04-27T01:42:31.908Z,2.15
2023-04-27T01:43:33.554Z,2.08
2023-04-27T01:44:35.157Z,2.10
2023-04-27T01:45:36.742Z,2.38
2023-04-27T01:46:38.351Z,2.10
2023-04-27T01:47:40.189Z,2.03
2023-04-27T01:48:41.911Z,2.17
2023-04-27T01:49:43.884Z,2.03
2023-04-27T01:50:45.567Z,2.78
2023-04-27T01:51:47.227Z,2.65
2023-04-27T01:52:48.859Z,2.80
2023-04-27T01:53:50.429Z,2.10
2023-04-27T01:54:52.075Z,2.40
2023-04-27T01:55:53.739Z,1.92
2023-04-27T01:56:55.605Z,1.98
2023-04-27T01:57:57.250Z,2.28
2023-04-27T01:58:58.901Z,2.50
2023-04-27T02:00:00.516Z,2.40
2023-04-27T02:01:02.089Z,2.17
2023-04-27T02:02:04.102Z,1.85
2023-04-27T02:03:06.017Z,2.65
2023-04-27T02:04:07.904Z,2.15
2023-04-27T02:05:09.876Z,2.10
2023-04-27T02:06:11.509Z,1.88
2023-04-27T02:07:13.169Z,2.22
2023-04-27T02:08:14.811Z,2.13
2023-04-27T02:09:16.523Z,2.23
2023-04-27T02:10:18.182Z,2.28
2023-04-27T02:11:19.772Z,1.73
2023-04-27T02:12:21.504Z,2.10
2023-04-27T02:13:23.158Z,2.38
2023-04-27T02:14:24.772Z,2.08
2023-04-27T02:15:26.393Z,2.10
2023-04-27T02:16:28.011Z,2.40
2023-04-27T02:17:29.758Z,2.33
2023-04-27T02:18:32.623Z,2.10
2023-04-27T02:19:34.251Z,2.00
2023-04-27T02:20:35.972Z,2.25
2023-04-27T02:21:38.071Z,1.80
2023-04-27T02:22:45.720Z,2.03
2023-04-27T02:23:47.405Z,2.17
2023-04-27T02:24:49.033Z,2.15
2023-04-27T02:25:50.689Z,2.00
2023-04-27T02:26:52.269Z,2.35
2023-04-27T02:27:53.927Z,2.08
2023-04-27T02:28:59.298Z,2.00
2023-04-27T02:30:05.313Z,2.27
2023-04-27T02:31:07.368Z,2.40
2023-04-27T02:32:09.018Z,2.10
2023-04-27T02:33:10.659Z,2.10
2023-04-27T02:34:12.416Z,1.90
2023-04-27T02:35:14.236Z,2.40
2023-04-27T02:36:15.833Z,1.77
2023-04-27T02:37:17.540Z,2.00
2023-04-27T02:38:19.140Z,1.80
2023-04-27T02:39:20.791Z,2.05
2023-04-27T02:40:22.448Z,1.60
2023-04-27T02:41:24.214Z,1.80
2023-04-27T02:42:25.844Z,1.90
2023-04-27T02:43:27.493Z,2.05
2023-04-27T02:44:29.662Z,2.33
2023-04-27T02:45:31.570Z,2.00
2023-04-27T02:46:33.171Z,1.88
2023-04-27T02:47:34.998Z,1.77
2023-04-27T02:48:36.677Z,2.20
2023-04-27T02:49:38.506Z,1.50
2023-04-27T02:50:43.670Z,1.93
2023-04-27T02:51:45.490Z,1.80
2023-04-27T02:52:47.096Z,1.60
2023-04-27T02:53:48.733Z,2.08
2023-04-27T02:54:50.338Z,2.05
2023-04-27T02:55:52.016Z,2.13
2023-04-27T02:56:53.666Z,1.90
2023-04-27T02:57:55.458Z,1.77
2023-04-27T02:58:57.208Z,2.30
2023-04-27T02:59:58.997Z,2.30
2023-04-27T03:01:01.562Z,2.67
2023-04-27T03:02:03.449Z,2.20
2023-04-27T03:03:05.258Z,2.25
2023-04-27T03:04:07.363Z,2.17
2023-04-27T03:05:09.192Z,2.67
2023-04-27T03:06:10.856Z,2.50
2023-04-27T03:07:13.036Z,2.42
2023-04-27T03:08:14.765Z,2.40
2023-04-27T03:09:16.720Z,2.00
2023-04-27T03:10:18.543Z,2.10
2023-04-27T03:11:20.158Z,1.70
2023-04-27T03:12:21.815Z,2.28
2023-04-27T03:13:23.400Z,2.22
2023-04-27T03:14:25.019Z,2.75
2023-04-27T03:15:26.724Z,2.20
2023-04-27T03:16:28.488Z,2.25
2023-04-27T03:17:30.198Z,2.40
2023-04-27T03:18:31.992Z,2.50
2023-04-27T03:19:33.595Z,2.10
2023-04-27T03:20:35.486Z,2.30
2023-04-27T03:21:37.114Z,2.63
2023-04-27T03:22:38.890Z,2.10
2023-04-27T03:23:40.662Z,2.00
2023-04-27T03:24:43.073Z,2.05
2023-04-27T03:25:44.725Z,2.00
2023-04-27T03:26:46.314Z,2.40
2023-04-27T03:27:47.927Z,2.30
2023-04-27T03:28:49.511Z,2.72
2023-04-27T03:29:54.282Z,2.90
2023-04-27T03:30:55.888Z,2.20
2023-04-27T03:31:57.656Z,2.13
2023-04-27T03:32:59.371Z,2.05
2023-04-27T03:34:01.003Z,2.55
2023-04-27T03:35:03.265Z,2.30
2023-04-27T03:36:05.501Z,2.28
2023-04-27T03:37:07.269Z,2.63
2023-04-27T03:38:08.861Z,2.35
2023-04-27T03:39:10.484Z,2.10
2023-04-27T03:40:12.869Z,2.22
2023-04-27T03:41:14.522Z,2.53
2023-04-27T03:42:16.107Z,2.10
2023-04-27T03:43:18.466Z,2.40
2023-04-27T03:44:20.075Z,2.30
2023-04-27T03:45:22.554Z,2.22
2023-04-27T03:46:24.250Z,2.20
2023-04-27T03:47:26.029Z,2.40
2023-04-27T03:48:27.962Z,2.55
2023-04-27T03:49:29.540Z,2.42
2023-04-27T03:50:31.182Z,2.33
2023-04-27T03:51:33.441Z,2.20
2023-04-27T03:52:35.117Z,3.00
2023-04-27T03:53:36.734Z,2.35
2023-04-27T03:54:38.330Z,2.58
2023-04-27T03:55:43.427Z,2.50
2023-04-27T03:56:45.035Z,2.53
2023-04-27T03:57:47.616Z,2.45
2023-04-27T03:58:49.222Z,2.83
2023-04-27T03:59:50.891Z,2.50
2023-04-27T04:00:52.522Z,3.17
2023-04-27T04:01:55.527Z,2.45
2023-04-27T04:02:57.777Z,2.40
2023-04-27T04:03:59.782Z,2.63
2023-04-27T04:05:01.614Z,2.58
2023-04-27T04:06:06.226Z,2.80
2023-04-27T04:07:07.848Z,2.35
2023-04-27T04:08:09.478Z,2.78
2023-04-27T04:09:11.444Z,3.50
2023-04-27T04:10:13.261Z,3.20
2023-04-27T04:11:14.879Z,3.03
2023-04-27T04:12:16.679Z,3.25
2023-04-27T04:13:18.258Z,2.90
2023-04-27T04:14:19.834Z,2.90
2023-04-27T04:15:21.497Z,3.20
2023-04-27T04:16:23.205Z,2.90
2023-04-27T04:17:24.950Z,3.05
2023-04-27T04:18:26.626Z,3.13
2023-04-27T04:19:28.298Z,3.53
2023-04-27T04:20:29.949Z,3.38
2023-04-27T04:21:32.129Z,3.97
2023-04-27T04:22:33.702Z,3.53
2023-04-27T04:23:35.930Z,3.20
2023-04-27T04:24:37.704Z,3.30
2023-04-27T04:25:40.412Z,3.17
2023-04-27T04:26:42.063Z,3.00
2023-04-27T04:27:43.705Z,3.03
2023-04-27T04:28:45.818Z,2.85
2023-04-27T04:29:47.336Z,2.50
2023-04-27T04:30:49.534Z,2.70
2023-04-27T04:31:51.906Z,2.70
2023-04-27T04:32:53.582Z,2.55
2023-04-27T04:33:55.293Z,2.50
2023-04-27T04:34:57.773Z,2.95
2023-04-27T04:35:59.379Z,2.30
2023-04-27T04:37:01.024Z,2.90
2023-04-27T04:38:02.591Z,2.60
2023-04-27T04:39:05.453Z,2.70
2023-04-27T04:40:10.819Z,3.15
2023-04-27T04:41:12.571Z,3.05
2023-04-27T04:42:14.295Z,2.83
2023-04-27T04:43:16.163Z,3.00
2023-04-27T04:44:17.754Z,3.13
2023-04-27T04:45:19.483Z,2.70
2023-04-27T04:46:22.411Z,2.58
2023-04-27T04:47:24.107Z,3.75
2023-04-27T04:48:25.715Z,3.78
2023-04-27T04:49:27.313Z,3.20
2023-04-27T04:50:29.236Z,2.70
2023-04-27T04:51:30.899Z,4.15
2023-04-27T04:52:32.784Z,3.10
2023-04-27T04:53:34.354Z,2.65
2023-04-27T04:54:35.987Z,2.83
2023-04-27T04:55:37.621Z,3.20
2023-04-27T04:56:39.287Z,3.10
2023-04-27T04:57:41.092Z,3.63
2023-04-27T04:58:42.675Z,2.88
2023-04-27T04:59:44.313Z,2.75
2023-04-27T05:00:45.951Z,3.13
2023-04-27T05:01:47.833Z,2.78
2023-04-27T05:02:49.615Z,2.67
2023-04-27T05:03:51.575Z,3.10
2023-04-27T05:04:53.403Z,2.77
2023-04-27T05:05:55.070Z,2.45
2023-04-27T05:06:56.759Z,3.22
2023-04-27T05:07:58.347Z,2.30
2023-04-27T05:08:59.978Z,3.25
2023-04-27T05:10:01.620Z,2.70
2023-04-27T05:11:03.341Z,2.60
2023-04-27T05:12:05.247Z,2.88
2023-04-27T05:13:07.293Z,3.50
2023-04-27T05:14:08.995Z,2.80
2023-04-27T05:15:11.184Z,3.90
2023-04-27T05:16:12.806Z,2.65
2023-04-27T05:17:14.608Z,2.53
2023-04-27T05:18:16.233Z,3.10
2023-04-27T05:19:18.609Z,2.78
2023-04-27T05:20:20.770Z,2.40
2023-04-27T05:21:22.426Z,2.38
2023-04-27T05:22:24.047Z,3.47
2023-04-27T05:23:25.781Z,3.45
2023-04-27T05:24:27.486Z,2.92
2023-04-27T05:25:32.723Z,2.47
2023-04-27T05:26:34.331Z,2.58
2023-04-27T05:27:35.897Z,2.70
2023-04-27T05:28:37.493Z,3.70
2023-04-27T05:29:39.182Z,2.40
2023-04-27T05:30:40.878Z,2.35
2023-04-27T05:31:43.383Z,2.60
2023-04-27T05:32:49.114Z,2.80
2023-04-27T05:33:50.770Z,2.65
2023-04-27T05:34:53.057Z,2.45
2023-04-27T05:35:54.653Z,2.50
2023-04-27T05:36:56.313Z,2.40
2023-04-27T05:37:58.091Z,2.95
2023-04-27T05:38:59.657Z,2.38
2023-04-27T05:40:01.349Z,2.05
2023-04-27T05:41:02.935Z,2.38
2023-04-27T05:42:04.832Z,2.17
2023-04-27T05:43:06.553Z,2.70
2023-04-27T05:44:08.185Z,2.60
2023-04-27T05:45:10.085Z,2.38
2023-04-27T05:46:15.067Z,2.47
2023-04-27T05:47:16.774Z,1.90
2023-04-27T05:48:18.495Z,2.20
2023-04-27T05:49:20.070Z,2.30
2023-04-27T05:50:21.802Z,2.17
2023-04-27T05:51:23.374Z,2.55
2023-04-27T05:52:30.872Z,2.20
2023-04-27T05:53:35.389Z,2.25
2023-04-27T05:54:36.986Z,2.00
2023-04-27T05:55:39.407Z,2.88
2023-04-27T05:56:41.212Z,2.13
2023-04-27T05:57:42.867Z,2.30
2023-04-27T05:58:44.568Z,2.15
2023-04-27T05:59:46.345Z,2.35
2023-04-27T06:00:47.939Z,2.38
2023-04-27T06:01:49.871Z,2.30
2023-04-27T06:02:51.699Z,2.22
2023-04-27T06:03:53.472Z,2.50
2023-04-27T06:04:55.234Z,2.45
2023-04-27T06:06:00.522Z,2.10
2023-04-27T06:07:04.335Z,1.73
2023-04-27T06:08:06.220Z,2.20
2023-04-27T06:09:08.462Z,2.15
2023-04-27T06:10:11.196Z,1.90
2023-04-27T06:11:12.982Z,2.47
2023-04-27T06:12:14.567Z,1.98
2023-04-27T06:13:17.320Z,1.92
2023-04-27T06:14:19.212Z,2.08
2023-04-27T06:15:21.055Z,2.28
2023-04-27T06:16:23.274Z,2.50
2023-04-27T06:17:24.968Z,2.07
2023-04-27T06:18:26.610Z,1.98
2023-04-27T06:19:28.265Z,2.15
2023-04-27T06:20:29.976Z,2.53
2023-04-27T06:21:33.678Z,2.15
2023-04-27T06:22:38.559Z,2.08
2023-04-27T06:23:40.196Z,2.42
2023-04-27T06:24:42.521Z,1.98
2023-04-27T06:25:44.386Z,2.10
2023-04-27T06:26:46.070Z,1.85
2023-04-27T06:27:47.746Z,2.10
2023-04-27T06:28:49.335Z,1.92
2023-04-27T06:29:50.899Z,2.00
2023-04-27T06:30:53.202Z,1.90
2023-04-27T06:31:54.901Z,2.00
2023-04-27T06:32:56.535Z,2.45
2023-04-27T06:33:58.190Z,2.75
2023-04-27T06:34:59.779Z,2.58
2023-04-27T06:36:02.358Z,2.10
2023-04-27T06:37:04.036Z,1.92
2023-04-27T06:38:07.592Z,2.17
2023-04-27T06:39:09.662Z,2.20
2023-04-27T06:40:11.679Z,2.05
2023-04-27T06:41:13.492Z,3.03
2023-04-27T06:42:15.100Z,2.03
2023-04-27T06:43:16.742Z,2.03
2023-04-27T06:44:18.393Z,2.40
2023-04-27T06:45:19.978Z,1.90
2023-04-27T06:46:21.648Z,2.33
2023-04-27T06:47:23.266Z,3.28
2023-04-27T06:48:24.958Z,2.73
2023-04-27T06:49:26.844Z,1.98
2023-04-27T06:50:29.402Z,2.00
2023-04-27T06:51:31.973Z,2.08
2023-04-27T06:52:34.016Z,2.17
2023-04-27T06:53:35.878Z,2.05
2023-04-27T06:54:37.637Z,1.98
2023-04-27T06:55:41.598Z,2.10
2023-04-27T06:56:44.907Z,1.80
2023-04-27T06:57:46.496Z,1.90
2023-04-27T06:58:48.090Z,2.27
2023-04-27T06:59:50.759Z,2.47
2023-04-27T07:00:52.837Z,1.95
2023-04-27T07:01:54.814Z,2.33
2023-04-27T07:02:56.438Z,1.90
2023-04-27T07:03:58.392Z,2.05
2023-04-27T07:05:00.331Z,2.47
2023-04-27T07:06:02.165Z,1.83
2023-04-27T07:07:03.844Z,2.10
2023-04-27T07:08:08.470Z,1.80
2023-04-27T07:09:20.172Z,1.90
2023-04-27T07:10:27.986Z,1.95
2023-04-27T07:11:29.631Z,1.75
2023-04-27T07:12:31.373Z,1.67
2023-04-27T07:13:32.975Z,2.15
2023-04-27T07:14:34.645Z,2.05
2023-04-27T07:15:36.941Z,1.60
2023-04-27T07:16:39.135Z,1.52
2023-04-27T07:17:41.514Z,2.40
2023-04-27T07:18:44.018Z,1.92
2023-04-27T07:19:45.678Z,2.87
2023-04-27T07:20:47.274Z,2.00
2023-04-27T07:21:50.153Z,2.42
2023-04-27T07:22:51.880Z,1.75
2023-04-27T07:23:54.397Z,1.85
2023-04-27T07:24:57.344Z,1.83
2023-04-27T07:25:59.236Z,1.70
2023-04-27T07:27:02.719Z,1.92
2023-04-27T07:28:04.425Z,2.00
2023-04-27T07:29:18.823Z,1.55
2023-04-27T07:30:25.044Z,1.37
2023-04-27T07:31:26.780Z,2.25
2023-04-27T07:32:28.566Z,1.45
2023-04-27T07:33:30.307Z,1.35
2023-04-27T07:34:41.177Z,1.50
2023-04-27T07:35:46.968Z,1.50
2023-04-27T07:36:48.549Z,1.30
2023-04-27T07:37:51.400Z,1.42
2023-04-27T07:38:53.206Z,1.42
2023-04-27T07:39:54.930Z,1.65
2023-04-27T07:41:01.959Z,2.10
2023-04-27T07:42:03.811Z,1.65
2023-04-27T07:43:05.620Z,1.63
2023-04-27T07:44:07.258Z,1.50
2023-04-27T07:45:09.919Z,1.73
2023-04-27T07:46:12.456Z,1.70
2023-04-27T07:47:14.194Z,1.60
2023-04-27T07:48:16.263Z,1.48
2023-04-27T07:49:17.924Z,1.10
2023-04-27T07:50:24.454Z,1.00
2023-04-27T07:51:28.709Z,1.73
2023-04-27T07:52:30.733Z,1.00
2023-04-27T07:53:35.593Z,1.40
2023-04-27T07:54:37.230Z,1.10
2023-04-27T07:55:38.878Z,1.10
2023-04-27T07:56:42.124Z,1.45
2023-04-27T07:57:43.831Z,1.40
2023-04-27T07:58:45.919Z,1.33
2023-04-27T07:59:47.680Z,1.20
2023-04-27T08:00:49.341Z,1.25
2023-04-27T08:01:51.378Z,0.90
2023-04-27T08:02:54.053Z,1.27
2023-04-27T08:03:56.045Z,1.02
2023-04-27T08:04:58.210Z,1.40
2023-04-27T08:06:00.522Z,1.20
2023-04-27T08:07:02.652Z,1.08
2023-04-27T08:08:05.578Z,1.30
2023-04-27T08:09:07.915Z,1.17
2023-04-27T08:10:09.661Z,1.40
2023-04-27T08:11:12.065Z,1.35
2023-04-27T08:12:13.764Z,1.77
2023-04-27T08:13:15.727Z,1.88
2023-04-27T08:14:17.348Z,1.30
2023-04-27T08:15:19.078Z,1.08
2023-04-27T08:16:20.875Z,1.15
2023-04-27T08:17:22.612Z,1.52
2023-04-27T08:18:25.542Z,1.40
2023-04-27T08:19:27.146Z,1.30
2023-04-27T08:20:28.822Z,0.90
2023-04-27T08:21:30.538Z,1.05
2023-04-27T08:22:32.196Z,1.23
2023-04-27T08:23:33.916Z,1.30
2023-04-27T08:24:36.248Z,1.27
2023-04-27T08:25:37.844Z,1.25
2023-04-27T08:26:41.240Z,1.00
2023-04-27T08:27:43.007Z,0.98
2023-04-27T08:28:44.581Z,1.33
2023-04-27T08:29:47.936Z,0.90
2023-04-27T08:30:49.595Z,1.02
2023-04-27T08:31:51.307Z,0.98
2023-04-27T08:32:54.801Z,1.27
2023-04-27T08:33:56.677Z,1.55
2023-04-27T08:34:58.265Z,1.00
2023-04-27T08:35:59.902Z,1.00
2023-04-27T08:37:03.311Z,1.42
2023-04-27T08:38:04.924Z,0.90
2023-04-27T08:39:07.863Z,1.00
2023-04-27T08:40:10.936Z,1.13
2023-04-27T08:41:22.527Z,1.67
2023-04-27T08:42:24.460Z,1.65
2023-04-27T08:43:26.136Z,1.30
2023-04-27T08:44:27.746Z,1.10
2023-04-27T08:45:29.371Z,0.98
2023-04-27T08:46:31.731Z,1.15
2023-04-27T08:47:42.597Z,1.38
2023-04-27T08:48:44.732Z,1.20
2023-04-27T08:49:46.546Z,1.05
2023-04-27T08:50:48.834Z,1.23
2023-04-27T08:51:50.485Z,1.50
2023-04-27T08:52:53.009Z,1.30
2023-04-27T08:53:56.404Z,0.93
2023-04-27T08:54:58.021Z,1.38
2023-04-27T08:55:59.616Z,1.30
2023-04-27T08:57:03.209Z,1.88
2023-04-27T08:58:04.809Z,1.23
2023-04-27T08:59:16.746Z,1.52
2023-04-27T09:00:20.183Z,1.35
2023-04-27T09:01:22.321Z,1.52
2023-04-27T09:02:24.919Z,1.50
2023-04-27T09:03:26.779Z,1.70
2023-04-27T09:04:42.016Z,1.43
2023-04-27T09:06:00.659Z,1.15
2023-04-27T09:07:12.988Z,1.50
2023-04-27T09:08:14.637Z,1.25
2023-04-27T09:09:23.812Z,1.02
2023-04-27T09:10:25.713Z,1.65
2023-04-27T09:11:38.177Z,1.10
2023-04-27T09:12:39.824Z,1.50
2023-04-27T09:13:45.073Z,1.30
2023-04-27T09:15:00.393Z,1.00
2023-04-27T09:16:02.082Z,1.30
2023-04-27T09:17:03.747Z,1.40
2023-04-27T09:18:05.436Z,1.40
2023-04-27T09:19:07.177Z,1.20
2023-04-27T09:20:12.891Z,1.20
2023-04-27T09:21:25.555Z,1.15
2023-04-27T09:22:27.140Z,1.70
2023-04-27T09:23:37.167Z,1.63
2023-04-27T09:24:38.905Z,1.33
2023-04-27T09:25:40.586Z,1.30
2023-04-27T09:26:43.073Z,1.57
2023-04-27T09:27:44.692Z,1.38
2023-04-27T09:28:48.383Z,1.33
2023-04-27T09:29:49.965Z,1.33
2023-04-27T09:30:55.278Z,1.88
2023-04-27T09:31:56.993Z,1.02
2023-04-27T09:33:01.631Z,1.30
2023-04-27T09:34:04.022Z,1.38
2023-04-27T09:35:07.701Z,1.25
2023-04-27T09:36:09.487Z,1.35
2023-04-27T09:37:11.166Z,1.00
2023-04-27T09:38:13.427Z,1.35
2023-04-27T09:39:16.204Z,1.15
2023-04-27T09:40:18.930Z,1.20
2023-04-27T09:41:20.539Z,1.23
2023-04-27T09:42:22.137Z,1.40
2023-04-27T09:43:24.896Z,1.98
2023-04-27T09:44:27.013Z,1.20
2023-04-27T09:45:28.680Z,1.02
2023-04-27T09:46:30.437Z,1.20
2023-04-27T09:47:33.295Z,1.00
2023-04-27T09:48:34.899Z,1.10
2023-04-27T09:49:36.775Z,1.05
2023-04-27T09:50:39.792Z,1.17
2023-04-27T09:51:41.465Z,1.10
2023-04-27T09:52:43.130Z,1.33
2023-04-27T09:53:52.992Z,1.38
2023-04-27T09:54:54.968Z,1.20
2023-04-27T09:56:02.696Z,1.30
2023-04-27T09:57:13.110Z,1.30
2023-04-27T09:58:42.339Z,1.40
2023-04-27T09:59:46.584Z,1.58
2023-04-27T10:01:07.840Z,1.30
2023-04-27T10:02:23.614Z,1.30
2023-04-27T10:03:48.321Z,1.25
2023-04-27T10:05:09.236Z,1.13
2023-04-27T10:06:41.962Z,1.10
2023-04-27T10:07:44.493Z,1.63
2023-04-27T10:08:46.537Z,1.05
2023-04-27T10:09:49.941Z,1.33
2023-04-27T10:10:53.373Z,1.07
2023-04-27T10:11:55.258Z,1.40
2023-04-27T10:12:58.128Z,1.17
2023-04-27T10:13:59.697Z,1.70
2023-04-27T10:15:14.835Z,1.33
2023-04-27T10:16:17.514Z,2.03
2023-04-27T10:17:19.899Z,2.03
2023-04-27T10:18:31.233Z,1.70
2023-04-27T10:19:32.857Z,1.73
2023-04-27T10:20:36.603Z,1.30
2023-04-27T10:21:38.573Z,1.40
2023-04-27T10:22:47.640Z,1.35
2023-04-27T10:23:52.330Z,1.85
2023-04-27T10:24:54.003Z,1.52
2023-04-27T10:25:55.807Z,1.38
2023-04-27T10:27:01.401Z,1.60
2023-04-27T10:28:03.173Z,1.70
2023-04-27T10:29:07.336Z,1.52
2023-04-27T10:30:11.051Z,1.38
2023-04-27T10:31:12.818Z,1.35
2023-04-27T10:32:26.103Z,2.63
2023-04-27T10:33:27.782Z,1.45
2023-04-27T10:34:29.451Z,1.55
2023-04-27T10:35:43.291Z,1.42
2023-04-27T10:36:44.881Z,2.10
2023-04-27T10:37:47.687Z,1.27
2023-04-27T10:38:50.107Z,2.15
2023-04-27T10:39:53.547Z,1.55
2023-04-27T10:41:05.070Z,1.25
2023-04-27T10:42:06.969Z,1.63
2023-04-27T10:43:16.001Z,1.50
2023-04-27T10:44:30.780Z,1.40
2023-04-27T10:45:34.131Z,2.05
2023-04-27T10:46:36.541Z,1.35
2023-04-27T10:47:39.998Z,1.60
2023-04-27T10:48:42.514Z,1.35
2023-04-27T10:49:44.172Z,1.48
2023-04-27T10:50:46.984Z,1.45
2023-04-27T10:51:50.034Z,1.35
2023-04-27T10:52:51.675Z,1.73
2023-04-27T10:53:53.882Z,1.70
2023-04-27T10:54:55.530Z,1.40
2023-04-27T10:55:57.140Z,1.70
2023-04-27T10:57:08.666Z,1.40
2023-04-27T10:58:10.331Z,1.60
2023-04-27T10:59:12.122Z,1.25
2023-04-27T11:00:16.453Z,1.33
2023-04-27T11:01:29.241Z,1.50
2023-04-27T11:02:31.423Z,1.90
2023-04-27T11:03:33.256Z,1.52
2023-04-27T11:04:38.889Z,2.00
2023-04-27T11:05:42.957Z,1.70
2023-04-27T11:06:46.032Z,1.80
2023-04-27T11:07:48.049Z,1.58
2023-04-27T11:08:49.738Z,1.85
2023-04-27T11:09:51.449Z,2.05
2023-04-27T11:10:53.080Z,1.52
2023-04-27T11:11:54.728Z,1.70
2023-04-27T11:12:56.933Z,1.92
2023-04-27T11:13:58.603Z,1.65
2023-04-27T11:15:00.212Z,1.60
2023-04-27T11:16:01.853Z,1.30
2023-04-27T11:17:06.373Z,1.65
2023-04-27T11:18:08.038Z,1.60
2023-04-27T11:19:09.760Z,1.80
2023-04-27T11:20:11.342Z,1.67
2023-04-27T11:21:13.477Z,1.65
2023-04-27T11:22:18.807Z,1.83
2023-04-27T11:23:25.234Z,1.67
2023-04-27T11:24:27.215Z,1.58
2023-04-27T11:25:29.275Z,2.23
2023-04-27T11:26:31.120Z,1.73
2023-04-27T11:27:39.288Z,1.60
2023-04-27T11:28:41.452Z,1.30
2023-04-27T11:29:43.125Z,1.45
2023-04-27T11:30:44.735Z,1.55
2023-04-27T11:31:49.326Z,1.60
2023-04-27T11:32:51.376Z,2.35
2023-04-27T11:33:53.912Z,1.80
2023-04-27T11:34:57.207Z,1.70
2023-04-27T11:36:00.117Z,1.77
2023-04-27T11:38:17.121Z,1.70
2023-04-27T11:39:19.705Z,2.05
2023-04-27T11:40:23.270Z,1.38
2023-04-27T11:41:33.786Z,1.50
2023-04-27T11:42:35.414Z,1.70
2023-04-27T11:43:40.797Z,1.60
2023-04-27T11:44:42.444Z,1.70
2023-04-27T11:45:45.109Z,1.50
2023-04-27T11:46:47.743Z,1.87
2023-04-27T11:47:49.479Z,1.90
2023-04-27T11:48:51.444Z,1.50
2023-04-27T11:49:57.741Z,1.50
2023-04-27T11:51:00.572Z,1.55
2023-04-27T11:52:02.785Z,1.48
2023-04-27T11:53:04.384Z,1.80
2023-04-27T11:54:06.873Z,1.60
2023-04-27T11:55:10.771Z,2.42
2023-04-27T11:56:12.435Z,1.60
2023-04-27T11:57:14.079Z,1.80
2023-04-27T11:58:16.225Z,1.58
2023-04-27T11:59:21.760Z,1.77
2023-04-27T12:00:24.353Z,1.80
2023-04-27T12:01:37.061Z,1.63
2023-04-27T12:02:40.507Z,1.73
2023-04-27T12:03:42.317Z,1.70
2023-04-27T12:04:44.225Z,1.30
2023-04-27T12:05:50.184Z,1.90
2023-04-27T12:06:51.891Z,1.50
2023-04-27T12:07:53.485Z,1.73
2023-04-27T12:08:57.861Z,1.65
2023-04-27T12:10:00.901Z,1.90
2023-04-27T12:11:02.962Z,1.48
2023-04-27T12:12:04.630Z,1.35
2023-04-27T12:13:06.249Z,1.75
2023-04-27T12:14:08.121Z,1.60
2023-04-27T12:15:10.260Z,1.70
2023-04-27T12:16:11.955Z,1.95
2023-04-27T12:17:13.673Z,1.15
2023-04-27T12:18:15.436Z,1.77
2023-04-27T12:19:17.611Z,1.30
2023-04-27T12:20:19.190Z,1.70
2023-04-27T12:21:21.371Z,1.40
2023-04-27T12:22:23.067Z,1.77
2023-04-27T12:23:24.715Z,1.50
2023-04-27T12:24:26.473Z,1.23
2023-04-27T12:25:28.215Z,1.20
2023-04-27T12:26:29.982Z,2.00
2023-04-27T12:27:32.263Z,1.30
2023-04-27T12:28:33.882Z,1.30
2023-04-27T12:29:35.702Z,1.52
2023-04-27T12:30:37.421Z,1.30
2023-04-27T12:31:39.173Z,1.30
2023-04-27T12:32:41.379Z,1.95
2023-04-27T12:33:43.141Z,1.55
2023-04-27T12:34:44.761Z,1.40
2023-04-27T12:35:46.399Z,1.70
2023-04-27T12:36:48.101Z,1.30
2023-04-27T12:37:50.161Z,1.30
2023-04-27T12:38:51.914Z,1.83
2023-04-27T12:39:53.592Z,1.58
2023-04-27T12:40:55.215Z,1.60
2023-04-27T12:41:58.257Z,1.00
2023-04-27T12:43:01.276Z,1.48
2023-04-27T12:44:03.106Z,1.50
2023-04-27T12:45:05.359Z,1.23
2023-04-27T12:46:07.082Z,1.17
2023-04-27T12:47:08.725Z,1.38
2023-04-27T12:48:10.325Z,1.50
2023-04-27T12:49:12.621Z,1.50
2023-04-27T12:50:15.796Z,1.00
2023-04-27T12:51:17.502Z,1.42
2023-04-27T12:52:19.517Z,1.50
2023-04-27T12:53:21.873Z,1.60
2023-04-27T12:54:23.490Z,1.45
2023-04-27T12:55:32.966Z,1.30
2023-04-27T12:56:35.885Z,1.40
2023-04-27T12:57:37.516Z,1.45
2023-04-27T12:58:40.000Z,1.15
2023-04-27T12:59:41.992Z,1.37
2023-04-27T13:00:43.582Z,1.58
2023-04-27T13:01:45.871Z,1.48
2023-04-27T13:02:48.106Z,1.80
2023-04-27T13:03:49.841Z,1.27
2023-04-27T13:04:51.790Z,1.38
2023-04-27T13:05:54.346Z,2.13
2023-04-27T13:06:56.102Z,1.98
2023-04-27T13:07:57.769Z,2.05
2023-04-27T13:08:59.687Z,1.70
2023-04-27T13:10:01.353Z,1.30
2023-04-27T13:11:03.006Z,1.30
2023-04-27T13:12:04.730Z,1.98
2023-04-27T13:13:06.885Z,1.55
2023-04-27T13:14:09.892Z,1.60
2023-04-27T13:15:11.663Z,2.30
2023-04-27T13:16:13.415Z,1.30
2023-04-27T13:17:15.045Z,1.60
2023-04-27T13:18:16.691Z,3.00
2023-04-27T13:19:18.339Z,1.80
2023-04-27T13:20:20.367Z,1.50
2023-04-27T13:21:22.232Z,1.65
2023-04-27T13:22:23.838Z,1.70
2023-04-27T13:23:26.931Z,1.10
2023-04-27T13:24:29.451Z,1.35
2023-04-27T13:25:31.074Z,1.42
2023-04-27T13:26:33.537Z,1.25
2023-04-27T13:27:35.703Z,1.40
2023-04-27T13:28:37.308Z,1.15
2023-04-27T13:29:38.893Z,1.38
2023-04-27T13:30:40.527Z,1.40
2023-04-27T13:31:42.935Z,1.13
2023-04-27T13:32:44.606Z,1.73
2023-04-27T13:33:46.681Z,1.20
2023-04-27T13:34:48.275Z,1.80
2023-04-27T13:35:53.031Z,1.33
2023-04-27T13:36:54.774Z,1.20
2023-04-27T13:37:56.982Z,1.58
2023-04-27T13:38:58.662Z,1.70
2023-04-27T13:40:00.381Z,1.20
2023-04-27T13:41:02.064Z,1.40
2023-04-27T13:42:04.003Z,1.02
2023-04-27T13:43:05.651Z,1.33
2023-04-27T13:44:07.263Z,1.40
2023-04-27T13:45:09.412Z,1.40
2023-04-27T13:46:11.156Z,1.20
2023-04-27T13:47:12.950Z,3.40
2023-04-27T13:48:14.606Z,2.38
2023-04-27T13:49:16.183Z,1.50
2023-04-27T13:50:17.802Z,1.83
2023-04-27T13:51:19.462Z,1.20
2023-04-27T13:52:21.031Z,1.42
2023-04-27T13:53:25.845Z,1.33
2023-04-27T13:54:27.820Z,1.30
2023-04-27T13:55:29.396Z,1.10